Terminal Aerodrome Forecast
Issued by NWS

Home | Current Version | Previous Version | Text Only | Print | Product List | Glossary On
Versions: 1 2 3 4 5 6 7 8 9 10 11 12 13 14 15 16 17 18 19 20 21 22 23 24 25 26 27 28 29 30 31 32 33 34
552
FTUS43 KDTX 171120
TAFPTK
TAF
KPTK 171120Z 1712/1812 12008KT 2SM -SHRA BR OVC003
      TEMPO 1712/1714 3/4SM TSRA BR OVC003CB
     FM171400 16006KT 1/2SM -SHRA FG VV002
     FM171600 20006KT 1SM -DZ BR OVC004
     FM171800 24012KT 2SM -DZ BR OVC008
     FM180400 26006KT 3SM -RA BR OVC006=

USA.gov is the U.S. government's official web portal to all federal, state and local government web resources and services.